3D2

Ephraim-Gibraltar Airport

Ephraim, Wisconsin, USA
METAR K3D2 182215Z AUTO 16006KT 10SM CLR 21/13 A3008 RMK AO2 T02100134
Observed Flight Rules
Jul-18 @ 22:15 UTC (15 minutes ago) Visual Flight Rules
Wind Visibility Clouds
160° at 6 knots 10 miles
  • Clear skies
Temperatures Readings
Current 21°C / 70°F
Dewpoint 13°C / 55°F
Humidity 60%
Altimeter 30.08" Hg
Pressure 1019 hPa
Elevation 234
METAR K3D2 182215Z AUTO 16006KT 10SM CLR 21/13 A3008 RMK AO2 T02100134
Observed Flight Rules
Jul-18 @ 22:15 UTC
(15 minutes ago)
VFR
Wind Visibility
160° at 6 knots 10 miles
Clouds
  • Clear skies
Temperature Dewpoint
21°C / 70°F 13°C / 55°F
Humidity Altimeter Pressure
60% 30.08" Hg 1019 hPa